sensor_id;sensor_type;location;lat;lon;timestamp;P1;durP1;ratioP1;P2;durP2;ratioP2
17959;SDS011;9105;53.552;9.980;2023-08-01T00:02:05;9.60;;;7.20;;
17959;SDS011;9105;53.552;9.980;2023-08-01T00:04:31;7.97;;;6.57;;
17959;SDS011;9105;53.552;9.980;2023-08-01T00:06:56;10.48;;;8.02;;
17959;SDS011;9105;53.552;9.980;2023-08-01T00:09:21;10.00;;;7.57;;
17959;SDS011;9105;53.552;9.980;2023-08-01T00:11:47;9.27;;;8.00;;
17959;SDS011;9105;53.552;9.980;2023-08-01T00:14:12;8.27;;;6.82;;
17959;SDS011;9105;53.552;9.980;2023-08-01T00:16:37;8.93;;;6.50;;
17959;SDS011;9105;53.552;9.980;2023-08-01T00:19:03;6.22;;;5.45;;
17959;SDS011;9105;53.552;9.980;2023-08-01T00:21:28;6.78;;;6.07;;
17959;SDS011;9105;53.552;9.980;2023-08-01T00:23:56;5.45;;;4.95;;
17959;SDS011;9105;53.552;9.980;2023-08-01T00:26:22;7.32;;;4.85;;
17959;SDS011;9105;53.552;9.980;2023-08-01T00:28:47;4.18;;;3.78;;
17959;SDS011;9105;53.552;9.980;2023-08-01T00:31:13;6.47;;;5.10;;
17959;SDS011;9105;53.552;9.980;2023-08-01T00:33:39;6.60;;;4.90;;
17959;SDS011;9105;53.552;9.980;2023-08-01T00:36:04;5.35;;;4.38;;
17959;SDS011;9105;53.552;9.980;2023-08-01T00:38:34;7.80;;;4.03;;
17959;SDS011;9105;53.552;9.980;2023-08-01T00:41:00;5.90;;;4.10;;
17959;SDS011;9105;53.552;9.980;2023-08-01T00:43:26;5.35;;;4.85;;
17959;SDS011;9105;53.552;9.980;2023-08-01T00:45:51;5.53;;;4.95;;
17959;SDS011;9105;53.552;9.980;2023-08-01T00:48:17;7.22;;;5.43;;
17959;SDS011;9105;53.552;9.980;2023-08-01T00:50:44;6.95;;;5.72;;
17959;SDS011;9105;53.552;9.980;2023-08-01T00:53:09;6.10;;;5.13;;
17959;SDS011;9105;53.552;9.980;2023-08-01T00:55:35;6.20;;;5.60;;
17959;SDS011;9105;53.552;9.980;2023-08-01T00:58:00;4.82;;;4.32;;
17959;SDS011;9105;53.552;9.980;2023-08-01T01:00:26;10.00;;;6.38;;
17959;SDS011;9105;53.552;9.980;2023-08-01T01:02:51;5.57;;;4.38;;
17959;SDS011;9105;53.552;9.980;2023-08-01T01:05:17;5.57;;;4.32;;
17959;SDS011;9105;53.552;9.980;2023-08-01T01:07:42;7.00;;;4.50;;
17959;SDS011;9105;53.552;9.980;2023-08-01T01:10:09;7.43;;;4.85;;
17959;SDS011;9105;53.552;9.980;2023-08-01T01:12:35;6.47;;;4.68;;
17959;SDS011;9105;53.552;9.980;2023-08-01T01:15:00;7.25;;;5.05;;
17959;SDS011;9105;53.552;9.980;2023-08-01T01:17:25;8.60;;;5.53;;
17959;SDS011;9105;53.552;9.980;2023-08-01T01:19:51;8.18;;;6.10;;
17959;SDS011;9105;53.552;9.980;2023-08-01T01:22:16;11.23;;;6.93;;
17959;SDS011;9105;53.552;9.980;2023-08-01T01:24:42;9.10;;;6.13;;
17959;SDS011;9105;53.552;9.980;2023-08-01T01:27:07;9.68;;;6.15;;
17959;SDS011;9105;53.552;9.980;2023-08-01T01:29:34;9.88;;;6.63;;
17959;SDS011;9105;53.552;9.980;2023-08-01T01:32:00;7.63;;;5.68;;
17959;SDS011;9105;53.552;9.980;2023-08-01T01:34:26;10.85;;;7.70;;
17959;SDS011;9105;53.552;9.980;2023-08-01T01:36:53;9.98;;;7.40;;
17959;SDS011;9105;53.552;9.980;2023-08-01T01:39:18;12.00;;;7.57;;
17959;SDS011;9105;53.552;9.980;2023-08-01T01:41:43;11.07;;;7.50;;
17959;SDS011;9105;53.552;9.980;2023-08-01T01:44:09;10.68;;;8.18;;
17959;SDS011;9105;53.552;9.980;2023-08-01T01:46:34;13.60;;;9.93;;
17959;SDS011;9105;53.552;9.980;2023-08-01T01:49:00;15.70;;;9.18;;
17959;SDS011;9105;53.552;9.980;2023-08-01T01:51:26;16.05;;;9.73;;
17959;SDS011;9105;53.552;9.980;2023-08-01T01:53:51;18.35;;;11.70;;
17959;SDS011;9105;53.552;9.980;2023-08-01T01:56:17;18.02;;;11.73;;
17959;SDS011;9105;53.552;9.980;2023-08-01T01:58:42;12.55;;;9.82;;
17959;SDS011;9105;53.552;9.980;2023-08-01T02:01:07;19.45;;;12.48;;
17959;SDS011;9105;53.552;9.980;2023-08-01T02:03:33;17.92;;;11.65;;
17959;SDS011;9105;53.552;9.980;2023-08-01T02:05:58;10.65;;;8.90;;
17959;SDS011;9105;53.552;9.980;2023-08-01T02:08:23;20.25;;;13.15;;
17959;SDS011;9105;53.552;9.980;2023-08-01T02:10:49;17.08;;;11.77;;
17959;SDS011;9105;53.552;9.980;2023-08-01T02:13:14;18.60;;;12.50;;
17959;SDS011;9105;53.552;9.980;2023-08-01T02:15:40;19.35;;;12.25;;
17959;SDS011;9105;53.552;9.980;2023-08-01T02:18:05;18.67;;;12.35;;
17959;SDS011;9105;53.552;9.980;2023-08-01T02:20:31;18.30;;;12.30;;
17959;SDS011;9105;53.552;9.980;2023-08-01T02:22:56;18.52;;;12.68;;
17959;SDS011;9105;53.552;9.980;2023-08-01T02:25:22;13.85;;;10.52;;
17959;SDS011;9105;53.552;9.980;2023-08-01T02:27:47;15.40;;;11.90;;
17959;SDS011;9105;53.552;9.980;2023-08-01T02:30:12;22.33;;;14.23;;
17959;SDS011;9105;53.552;9.980;2023-08-01T02:32:38;13.52;;;10.93;;
17959;SDS011;9105;53.552;9.980;2023-08-01T02:35:03;19.50;;;14.10;;
17959;SDS011;9105;53.552;9.980;2023-08-01T02:37:29;19.20;;;14.52;;
17959;SDS011;9105;53.552;9.980;2023-08-01T02:39:55;17.58;;;13.27;;
17959;SDS011;9105;53.552;9.980;2023-08-01T02:42:20;23.50;;;15.10;;
17959;SDS011;9105;53.552;9.980;2023-08-01T02:44:45;18.67;;;13.23;;
17959;SDS011;9105;53.552;9.980;2023-08-01T02:47:11;18.73;;;12.18;;
17959;SDS011;9105;53.552;9.980;2023-08-01T02:49:36;14.70;;;11.15;;
17959;SDS011;9105;53.552;9.980;2023-08-01T02:52:02;22.70;;;15.13;;
17959;SDS011;9105;53.552;9.980;2023-08-01T02:54:27;15.88;;;13.07;;
17959;SDS011;9105;53.552;9.980;2023-08-01T02:56:54;23.70;;;17.13;;
17959;SDS011;9105;53.552;9.980;2023-08-01T02:59:19;18.67;;;14.10;;
17959;SDS011;9105;53.552;9.980;2023-08-01T03:01:45;18.42;;;15.13;;
17959;SDS011;9105;53.552;9.980;2023-08-01T03:04:11;21.48;;;17.00;;
17959;SDS011;9105;53.552;9.980;2023-08-01T03:06:37;17.65;;;13.57;;
17959;SDS011;9105;53.552;9.980;2023-08-01T03:09:02;19.30;;;14.90;;
17959;SDS011;9105;53.552;9.980;2023-08-01T03:11:28;13.73;;;12.23;;
17959;SDS011;9105;53.552;9.980;2023-08-01T03:13:53;18.48;;;14.60;;
17959;SDS011;9105;53.552;9.980;2023-08-01T03:16:19;17.15;;;14.02;;
17959;SDS011;9105;53.552;9.980;2023-08-01T03:18:44;17.95;;;13.98;;
17959;SDS011;9105;53.552;9.980;2023-08-01T03:21:10;21.30;;;15.45;;
17959;SDS011;9105;53.552;9.980;2023-08-01T03:23:35;18.73;;;14.80;;
17959;SDS011;9105;53.552;9.980;2023-08-01T03:26:01;16.55;;;12.85;;
17959;SDS011;9105;53.552;9.980;2023-08-01T03:28:26;18.65;;;14.80;;
17959;SDS011;9105;53.552;9.980;2023-08-01T03:30:52;16.08;;;13.32;;
17959;SDS011;9105;53.552;9.980;2023-08-01T03:33:18;15.82;;;12.95;;
17959;SDS011;9105;53.552;9.980;2023-08-01T03:35:44;18.98;;;15.15;;
17959;SDS011;9105;53.552;9.980;2023-08-01T03:38:09;20.02;;;14.70;;
17959;SDS011;9105;53.552;9.980;2023-08-01T03:40:35;17.38;;;14.05;;
17959;SDS011;9105;53.552;9.980;2023-08-01T03:43:01;19.60;;;14.50;;
17959;SDS011;9105;53.552;9.980;2023-08-01T03:45:26;20.70;;;14.52;;
17959;SDS011;9105;53.552;9.980;2023-08-01T03:47:52;15.68;;;13.40;;
17959;SDS011;9105;53.552;9.980;2023-08-01T03:50:18;18.23;;;13.25;;
17959;SDS011;9105;53.552;9.980;2023-08-01T03:52:43;17.63;;;14.30;;
17959;SDS011;9105;53.552;9.980;2023-08-01T03:55:09;21.13;;;16.55;;
17959;SDS011;9105;53.552;9.980;2023-08-01T03:57:34;19.65;;;15.35;;
17959;SDS011;9105;53.552;9.980;2023-08-01T04:00:00;18.98;;;16.42;;
17959;SDS011;9105;53.552;9.980;2023-08-01T04:02:25;16.67;;;14.48;;
17959;SDS011;9105;53.552;9.980;2023-08-01T04:04:50;17.60;;;14.23;;
17959;SDS011;9105;53.552;9.980;2023-08-01T04:07:16;19.80;;;14.25;;
17959;SDS011;9105;53.552;9.980;2023-08-01T04:09:41;17.10;;;12.50;;
17959;SDS011;9105;53.552;9.980;2023-08-01T04:12:07;16.67;;;12.90;;
17959;SDS011;9105;53.552;9.980;2023-08-01T04:14:33;14.70;;;12.70;;
17959;SDS011;9105;53.552;9.980;2023-08-01T04:16:59;18.00;;;13.60;;
17959;SDS011;9105;53.552;9.980;2023-08-01T04:19:24;21.83;;;14.20;;
17959;SDS011;9105;53.552;9.980;2023-08-01T04:21:50;16.27;;;13.65;;
17959;SDS011;9105;53.552;9.980;2023-08-01T04:24:15;19.30;;;13.00;;
17959;SDS011;9105;53.552;9.980;2023-08-01T04:26:41;18.00;;;12.48;;
17959;SDS011;9105;53.552;9.980;2023-08-01T04:29:06;17.55;;;12.20;;
17959;SDS011;9105;53.552;9.980;2023-08-01T04:31:31;17.45;;;13.40;;
17959;SDS011;9105;53.552;9.980;2023-08-01T04:33:57;17.80;;;11.85;;
17959;SDS011;9105;53.552;9.980;2023-08-01T04:36:22;14.60;;;12.57;;
17959;SDS011;9105;53.552;9.980;2023-08-01T04:38:48;18.13;;;12.80;;
17959;SDS011;9105;53.552;9.980;2023-08-01T04:41:13;18.73;;;12.40;;
17959;SDS011;9105;53.552;9.980;2023-08-01T04:43:38;19.50;;;15.27;;
17959;SDS011;9105;53.552;9.980;2023-08-01T04:46:04;17.45;;;13.30;;
17959;SDS011;9105;53.552;9.980;2023-08-01T04:48:29;13.15;;;11.10;;
17959;SDS011;9105;53.552;9.980;2023-08-01T04:50:55;19.80;;;14.60;;
17959;SDS011;9105;53.552;9.980;2023-08-01T04:53:20;17.63;;;13.55;;
17959;SDS011;9105;53.552;9.980;2023-08-01T04:55:45;17.92;;;12.82;;
17959;SDS011;9105;53.552;9.980;2023-08-01T04:58:11;22.98;;;14.15;;
17959;SDS011;9105;53.552;9.980;2023-08-01T05:00:37;19.00;;;13.05;;
17959;SDS011;9105;53.552;9.980;2023-08-01T05:03:03;18.60;;;13.50;;
17959;SDS011;9105;53.552;9.980;2023-08-01T05:05:28;18.58;;;13.70;;
17959;SDS011;9105;53.552;9.980;2023-08-01T05:07:54;19.88;;;12.70;;
17959;SDS011;9105;53.552;9.980;2023-08-01T05:10:19;16.02;;;12.32;;
17959;SDS011;9105;53.552;9.980;2023-08-01T05:12:45;16.65;;;12.65;;
17959;SDS011;9105;53.552;9.980;2023-08-01T05:15:10;16.58;;;12.65;;
17959;SDS011;9105;53.552;9.980;2023-08-01T05:17:36;13.70;;;11.20;;
17959;SDS011;9105;53.552;9.980;2023-08-01T05:20:01;13.02;;;11.30;;
17959;SDS011;9105;53.552;9.980;2023-08-01T05:22:29;16.42;;;12.02;;
17959;SDS011;9105;53.552;9.980;2023-08-01T05:24:54;18.42;;;11.43;;
17959;SDS011;9105;53.552;9.980;2023-08-01T05:27:20;13.65;;;11.52;;
17959;SDS011;9105;53.552;9.980;2023-08-01T05:29:45;18.33;;;10.15;;
17959;SDS011;9105;53.552;9.980;2023-08-01T05:32:11;17.38;;;10.85;;
17959;SDS011;9105;53.552;9.980;2023-08-01T05:34:36;14.82;;;11.07;;
17959;SDS011;9105;53.552;9.980;2023-08-01T05:37:01;14.48;;;10.48;;
17959;SDS011;9105;53.552;9.980;2023-08-01T05:39:27;15.05;;;10.20;;
17959;SDS011;9105;53.552;9.980;2023-08-01T05:41:52;14.77;;;10.43;;
17959;SDS011;9105;53.552;9.980;2023-08-01T05:44:18;14.43;;;9.93;;
17959;SDS011;9105;53.552;9.980;2023-08-01T05:46:43;12.25;;;9.68;;
17959;SDS011;9105;53.552;9.980;2023-08-01T05:49:09;15.27;;;10.25;;
17959;SDS011;9105;53.552;9.980;2023-08-01T05:51:34;14.52;;;9.98;;
17959;SDS011;9105;53.552;9.980;2023-08-01T05:53:59;12.68;;;8.77;;
17959;SDS011;9105;53.552;9.980;2023-08-01T05:56:25;15.38;;;9.38;;
17959;SDS011;9105;53.552;9.980;2023-08-01T05:58:50;16.30;;;9.52;;
17959;SDS011;9105;53.552;9.980;2023-08-01T06:01:16;14.07;;;8.25;;
17959;SDS011;9105;53.552;9.980;2023-08-01T06:03:41;11.18;;;8.20;;
17959;SDS011;9105;53.552;9.980;2023-08-01T06:06:07;12.63;;;7.47;;
17959;SDS011;9105;53.552;9.980;2023-08-01T06:08:33;10.90;;;7.60;;
17959;SDS011;9105;53.552;9.980;2023-08-01T06:10:58;10.45;;;7.18;;
17959;SDS011;9105;53.552;9.980;2023-08-01T06:13:23;13.82;;;8.32;;
17959;SDS011;9105;53.552;9.980;2023-08-01T06:15:49;13.40;;;7.65;;
17959;SDS011;9105;53.552;9.980;2023-08-01T06:18:14;13.13;;;7.25;;
17959;SDS011;9105;53.552;9.980;2023-08-01T06:20:40;13.10;;;7.38;;
17959;SDS011;9105;53.552;9.980;2023-08-01T06:23:05;10.73;;;7.25;;
17959;SDS011;9105;53.552;9.980;2023-08-01T06:25:31;12.05;;;7.75;;
17959;SDS011;9105;53.552;9.980;2023-08-01T06:27:56;12.00;;;6.75;;
17959;SDS011;9105;53.552;9.980;2023-08-01T06:30:22;12.55;;;6.88;;
17959;SDS011;9105;53.552;9.980;2023-08-01T06:32:47;10.80;;;6.70;;
17959;SDS011;9105;53.552;9.980;2023-08-01T06:35:13;9.77;;;6.75;;
17959;SDS011;9105;53.552;9.980;2023-08-01T06:37:47;10.38;;;6.40;;
17959;SDS011;9105;53.552;9.980;2023-08-01T06:40:18;10.48;;;6.13;;
17959;SDS011;9105;53.552;9.980;2023-08-01T06:42:46;9.73;;;5.95;;
17959;SDS011;9105;53.552;9.980;2023-08-01T06:45:21;7.88;;;4.90;;
17959;SDS011;9105;53.552;9.980;2023-08-01T06:47:49;10.32;;;5.93;;
17959;SDS011;9105;53.552;9.980;2023-08-01T06:50:15;6.97;;;6.05;;
17959;SDS011;9105;53.552;9.980;2023-08-01T06:52:40;8.50;;;5.30;;
17959;SDS011;9105;53.552;9.980;2023-08-01T06:55:06;11.70;;;5.43;;
17959;SDS011;9105;53.552;9.980;2023-08-01T06:57:32;11.70;;;5.75;;
17959;SDS011;9105;53.552;9.980;2023-08-01T06:59:57;8.32;;;5.55;;
17959;SDS011;9105;53.552;9.980;2023-08-01T07:02:22;8.40;;;4.75;;
17959;SDS011;9105;53.552;9.980;2023-08-01T07:04:48;8.00;;;4.80;;
17959;SDS011;9105;53.552;9.980;2023-08-01T07:07:13;13.48;;;4.95;;
17959;SDS011;9105;53.552;9.980;2023-08-01T07:09:39;7.40;;;4.93;;
17959;SDS011;9105;53.552;9.980;2023-08-01T07:12:04;10.63;;;5.28;;
17959;SDS011;9105;53.552;9.980;2023-08-01T07:14:30;7.85;;;4.65;;
17959;SDS011;9105;53.552;9.980;2023-08-01T07:16:56;8.52;;;4.80;;
17959;SDS011;9105;53.552;9.980;2023-08-01T07:19:21;6.43;;;4.00;;
17959;SDS011;9105;53.552;9.980;2023-08-01T07:21:47;8.38;;;3.97;;
17959;SDS011;9105;53.552;9.980;2023-08-01T07:24:14;6.03;;;4.03;;
17959;SDS011;9105;53.552;9.980;2023-08-01T07:26:40;8.70;;;3.95;;
17959;SDS011;9105;53.552;9.980;2023-08-01T07:29:05;9.40;;;4.28;;
17959;SDS011;9105;53.552;9.980;2023-08-01T07:31:33;7.10;;;3.95;;
17959;SDS011;9105;53.552;9.980;2023-08-01T07:33:59;7.13;;;3.60;;
17959;SDS011;9105;53.552;9.980;2023-08-01T07:36:24;7.70;;;4.22;;
17959;SDS011;9105;53.552;9.980;2023-08-01T07:38:49;8.25;;;3.95;;
17959;SDS011;9105;53.552;9.980;2023-08-01T07:41:15;7.32;;;4.32;;
17959;SDS011;9105;53.552;9.980;2023-08-01T07:43:40;7.50;;;3.92;;
17959;SDS011;9105;53.552;9.980;2023-08-01T07:46:06;7.57;;;3.80;;
17959;SDS011;9105;53.552;9.980;2023-08-01T07:48:33;6.47;;;3.42;;
17959;SDS011;9105;53.552;9.980;2023-08-01T07:50:59;8.32;;;3.70;;
17959;SDS011;9105;53.552;9.980;2023-08-01T07:53:25;6.63;;;3.63;;
17959;SDS011;9105;53.552;9.980;2023-08-01T07:55:51;12.43;;;4.22;;
17959;SDS011;9105;53.552;9.980;2023-08-01T07:58:17;7.57;;;3.50;;
17959;SDS011;9105;53.552;9.980;2023-08-01T08:00:43;9.98;;;4.05;;
17959;SDS011;9105;53.552;9.980;2023-08-01T08:03:08;6.85;;;3.40;;
17959;SDS011;9105;53.552;9.980;2023-08-01T08:05:34;5.97;;;3.28;;
17959;SDS011;9105;53.552;9.980;2023-08-01T08:08:03;8.68;;;3.53;;
17959;SDS011;9105;53.552;9.980;2023-08-01T08:10:29;7.68;;;3.13;;
17959;SDS011;9105;53.552;9.980;2023-08-01T08:12:55;7.00;;;3.40;;
17959;SDS011;9105;53.552;9.980;2023-08-01T08:15:20;8.27;;;3.75;;
17959;SDS011;9105;53.552;9.980;2023-08-01T08:17:46;9.27;;;4.03;;
17959;SDS011;9105;53.552;9.980;2023-08-01T08:20:11;6.38;;;3.17;;
17959;SDS011;9105;53.552;9.980;2023-08-01T08:22:37;7.15;;;3.78;;
17959;SDS011;9105;53.552;9.980;2023-08-01T08:25:02;6.82;;;3.75;;
17959;SDS011;9105;53.552;9.980;2023-08-01T08:27:28;6.05;;;3.22;;
17959;SDS011;9105;53.552;9.980;2023-08-01T08:29:53;7.45;;;3.55;;
17959;SDS011;9105;53.552;9.980;2023-08-01T08:32:20;5.55;;;3.22;;
17959;SDS011;9105;53.552;9.980;2023-08-01T08:34:45;7.53;;;3.20;;
17959;SDS011;9105;53.552;9.980;2023-08-01T08:37:11;5.97;;;3.40;;
17959;SDS011;9105;53.552;9.980;2023-08-01T08:39:36;6.13;;;3.65;;
17959;SDS011;9105;53.552;9.980;2023-08-01T08:42:01;6.35;;;3.63;;
17959;SDS011;9105;53.552;9.980;2023-08-01T08:44:27;6.93;;;4.18;;
17959;SDS011;9105;53.552;9.980;2023-08-01T08:46:55;8.73;;;3.55;;
17959;SDS011;9105;53.552;9.980;2023-08-01T08:49:27;7.03;;;4.03;;
17959;SDS011;9105;53.552;9.980;2023-08-01T08:51:53;7.40;;;4.28;;
17959;SDS011;9105;53.552;9.980;2023-08-01T08:54:19;9.88;;;3.90;;
17959;SDS011;9105;53.552;9.980;2023-08-01T08:56:45;8.63;;;4.22;;
17959;SDS011;9105;53.552;9.980;2023-08-01T08:59:11;6.72;;;4.07;;
17959;SDS011;9105;53.552;9.980;2023-08-01T09:01:37;7.43;;;3.63;;
17959;SDS011;9105;53.552;9.980;2023-08-01T09:04:03;7.85;;;4.03;;
17959;SDS011;9105;53.552;9.980;2023-08-01T09:06:30;7.53;;;4.10;;
17959;SDS011;9105;53.552;9.980;2023-08-01T09:11:42;6.20;;;3.75;;
17959;SDS011;9105;53.552;9.980;2023-08-01T09:14:10;6.95;;;4.15;;
17959;SDS011;9105;53.552;9.980;2023-08-01T09:16:35;8.48;;;4.32;;
17959;SDS011;9105;53.552;9.980;2023-08-01T09:19:01;11.57;;;5.15;;
17959;SDS011;9105;53.552;9.980;2023-08-01T09:21:27;11.02;;;5.30;;
17959;SDS011;9105;53.552;9.980;2023-08-01T09:23:58;12.48;;;6.65;;
17959;SDS011;9105;53.552;9.980;2023-08-01T09:26:32;12.18;;;6.30;;
17959;SDS011;9105;53.552;9.980;2023-08-01T09:28:58;11.43;;;6.20;;
17959;SDS011;9105;53.552;9.980;2023-08-01T09:31:27;8.68;;;5.97;;
17959;SDS011;9105;53.552;9.980;2023-08-01T09:33:53;9.07;;;5.60;;
17959;SDS011;9105;53.552;9.980;2023-08-01T09:36:22;8.85;;;5.40;;
17959;SDS011;9105;53.552;9.980;2023-08-01T09:38:49;8.98;;;4.70;;
17959;SDS011;9105;53.552;9.980;2023-08-01T09:41:18;7.07;;;4.60;;
17959;SDS011;9105;53.552;9.980;2023-08-01T09:43:45;8.52;;;4.95;;
17959;SDS011;9105;53.552;9.980;2023-08-01T09:46:11;7.13;;;4.15;;
17959;SDS011;9105;53.552;9.980;2023-08-01T09:48:37;6.68;;;4.03;;
17959;SDS011;9105;53.552;9.980;2023-08-01T09:51:06;5.88;;;4.40;;
17959;SDS011;9105;53.552;9.980;2023-08-01T09:53:35;5.18;;;3.70;;
17959;SDS011;9105;53.552;9.980;2023-08-01T09:56:10;5.05;;;3.42;;
17959;SDS011;9105;53.552;9.980;2023-08-01T09:58:36;7.78;;;3.83;;
17959;SDS011;9105;53.552;9.980;2023-08-01T10:01:02;4.68;;;3.30;;
17959;SDS011;9105;53.552;9.980;2023-08-01T10:03:28;4.47;;;3.15;;
17959;SDS011;9105;53.552;9.980;2023-08-01T10:05:54;5.72;;;2.92;;
17959;SDS011;9105;53.552;9.980;2023-08-01T10:08:21;5.10;;;2.85;;
17959;SDS011;9105;53.552;9.980;2023-08-01T10:10:47;3.78;;;2.45;;
17959;SDS011;9105;53.552;9.980;2023-08-01T10:13:13;5.88;;;2.50;;
17959;SDS011;9105;53.552;9.980;2023-08-01T10:15:39;3.78;;;2.53;;
17959;SDS011;9105;53.552;9.980;2023-08-01T10:18:04;4.35;;;2.70;;
17959;SDS011;9105;53.552;9.980;2023-08-01T10:20:30;4.50;;;2.60;;
17959;SDS011;9105;53.552;9.980;2023-08-01T10:22:56;6.80;;;2.70;;
17959;SDS011;9105;53.552;9.980;2023-08-01T10:25:21;6.80;;;3.08;;
17959;SDS011;9105;53.552;9.980;2023-08-01T10:28:00;5.40;;;2.80;;
17959;SDS011;9105;53.552;9.980;2023-08-01T10:30:27;4.45;;;2.90;;
17959;SDS011;9105;53.552;9.980;2023-08-01T10:32:54;6.90;;;3.28;;
17959;SDS011;9105;53.552;9.980;2023-08-01T10:35:31;3.45;;;2.08;;
17959;SDS011;9105;53.552;9.980;2023-08-01T10:38:03;4.18;;;2.70;;
17959;SDS011;9105;53.552;9.980;2023-08-01T10:40:36;4.13;;;2.60;;
17959;SDS011;9105;53.552;9.980;2023-08-01T10:43:05;2.97;;;2.28;;
17959;SDS011;9105;53.552;9.980;2023-08-01T10:45:31;4.10;;;2.08;;
17959;SDS011;9105;53.552;9.980;2023-08-01T10:48:06;3.15;;;1.77;;
17959;SDS011;9105;53.552;9.980;2023-08-01T10:50:33;3.13;;;1.85;;
17959;SDS011;9105;53.552;9.980;2023-08-01T10:53:08;3.22;;;1.70;;
17959;SDS011;9105;53.552;9.980;2023-08-01T10:58:06;3.10;;;2.00;;
17959;SDS011;9105;53.552;9.980;2023-08-01T11:00:31;3.25;;;1.80;;
17959;SDS011;9105;53.552;9.980;2023-08-01T11:02:57;2.58;;;1.80;;
17959;SDS011;9105;53.552;9.980;2023-08-01T11:05:22;3.33;;;2.10;;
17959;SDS011;9105;53.552;9.980;2023-08-01T11:07:54;3.42;;;1.80;;
17959;SDS011;9105;53.552;9.980;2023-08-01T11:10:26;2.78;;;1.60;;
17959;SDS011;9105;53.552;9.980;2023-08-01T11:12:55;3.40;;;1.90;;
17959;SDS011;9105;53.552;9.980;2023-08-01T11:15:21;3.67;;;1.73;;
17959;SDS011;9105;53.552;9.980;2023-08-01T11:17:48;4.13;;;1.65;;
17959;SDS011;9105;53.552;9.980;2023-08-01T11:20:14;3.33;;;1.10;;
17959;SDS011;9105;53.552;9.980;2023-08-01T11:22:56;2.35;;;1.40;;
17959;SDS011;9105;53.552;9.980;2023-08-01T11:28:02;3.17;;;1.43;;
17959;SDS011;9105;53.552;9.980;2023-08-01T11:30:30;3.53;;;1.70;;
17959;SDS011;9105;53.552;9.980;2023-08-01T11:32:56;5.07;;;1.92;;
17959;SDS011;9105;53.552;9.980;2023-08-01T11:35:22;2.30;;;1.60;;
17959;SDS011;9105;53.552;9.980;2023-08-01T11:37:47;5.47;;;1.75;;
17959;SDS011;9105;53.552;9.980;2023-08-01T11:40:15;5.97;;;2.20;;
17959;SDS011;9105;53.552;9.980;2023-08-01T11:42:40;4.90;;;1.92;;
17959;SDS011;9105;53.552;9.980;2023-08-01T11:45:09;4.15;;;1.70;;
17959;SDS011;9105;53.552;9.980;2023-08-01T11:47:36;5.30;;;1.85;;
17959;SDS011;9105;53.552;9.980;2023-08-01T11:50:02;3.42;;;1.50;;
17959;SDS011;9105;53.552;9.980;2023-08-01T11:52:28;3.03;;;1.40;;
17959;SDS011;9105;53.552;9.980;2023-08-01T11:54:54;3.30;;;1.38;;
17959;SDS011;9105;53.552;9.980;2023-08-01T11:57:23;3.35;;;1.27;;
17959;SDS011;9105;53.552;9.980;2023-08-01T11:59:52;4.03;;;1.38;;
17959;SDS011;9105;53.552;9.980;2023-08-01T12:02:22;3.35;;;1.20;;
17959;SDS011;9105;53.552;9.980;2023-08-01T12:04:48;4.80;;;1.25;;
17959;SDS011;9105;53.552;9.980;2023-08-01T12:07:13;1.35;;;1.05;;
17959;SDS011;9105;53.552;9.980;2023-08-01T12:09:40;2.80;;;1.30;;
17959;SDS011;9105;53.552;9.980;2023-08-01T12:12:05;3.05;;;1.15;;
17959;SDS011;9105;53.552;9.980;2023-08-01T12:14:31;4.25;;;1.25;;
17959;SDS011;9105;53.552;9.980;2023-08-01T12:16:57;2.33;;;1.10;;
17959;SDS011;9105;53.552;9.980;2023-08-01T12:19:22;2.38;;;1.15;;
17959;SDS011;9105;53.552;9.980;2023-08-01T12:21:48;1.95;;;1.00;;
17959;SDS011;9105;53.552;9.980;2023-08-01T12:24:13;2.47;;;1.20;;
17959;SDS011;9105;53.552;9.980;2023-08-01T12:26:39;1.50;;;1.10;;
17959;SDS011;9105;53.552;9.980;2023-08-01T12:29:04;1.60;;;1.10;;
17959;SDS011;9105;53.552;9.980;2023-08-01T12:31:30;2.85;;;1.30;;
17959;SDS011;9105;53.552;9.980;2023-08-01T12:33:56;2.00;;;1.10;;
17959;SDS011;9105;53.552;9.980;2023-08-01T12:41:32;2.63;;;1.27;;
17959;SDS011;9105;53.552;9.980;2023-08-01T12:44:46;2.17;;;1.08;;
17959;SDS011;9105;53.552;9.980;2023-08-01T12:51:44;1.85;;;1.20;;
17959;SDS011;9105;53.552;9.980;2023-08-01T12:54:26;2.88;;;1.52;;
17959;SDS011;9105;53.552;9.980;2023-08-01T12:56:58;2.83;;;1.30;;
17959;SDS011;9105;53.552;9.980;2023-08-01T12:59:48;2.35;;;1.48;;
17959;SDS011;9105;53.552;9.980;2023-08-01T13:02:23;3.08;;;1.48;;
17959;SDS011;9105;53.552;9.980;2023-08-01T13:05:39;2.97;;;1.90;;
17959;SDS011;9105;53.552;9.980;2023-08-01T13:09:09;4.28;;;2.13;;
17959;SDS011;9105;53.552;9.980;2023-08-01T13:12:06;2.17;;;1.63;;
17959;SDS011;9105;53.552;9.980;2023-08-01T13:20:57;2.33;;;1.40;;
17959;SDS011;9105;53.552;9.980;2023-08-01T13:23:56;2.10;;;1.40;;
17959;SDS011;9105;53.552;9.980;2023-08-01T13:26:49;2.03;;;1.35;;
17959;SDS011;9105;53.552;9.980;2023-08-01T13:29:33;2.47;;;1.20;;
17959;SDS011;9105;53.552;9.980;2023-08-01T13:32:23;3.75;;;1.23;;
17959;SDS011;9105;53.552;9.980;2023-08-01T13:35:35;3.58;;;1.40;;
17959;SDS011;9105;53.552;9.980;2023-08-01T13:44:31;3.80;;;1.40;;
17959;SDS011;9105;53.552;9.980;2023-08-01T13:53:56;2.95;;;1.30;;
17959;SDS011;9105;53.552;9.980;2023-08-01T13:56:46;3.05;;;1.60;;
17959;SDS011;9105;53.552;9.980;2023-08-01T13:59:23;3.55;;;1.40;;
17959;SDS011;9105;53.552;9.980;2023-08-01T14:03:03;3.38;;;1.60;;
17959;SDS011;9105;53.552;9.980;2023-08-01T14:08:47;3.72;;;1.45;;
17959;SDS011;9105;53.552;9.980;2023-08-01T14:11:47;4.10;;;1.55;;
17959;SDS011;9105;53.552;9.980;2023-08-01T14:18:20;3.20;;;1.30;;
17959;SDS011;9105;53.552;9.980;2023-08-01T14:25:25;4.07;;;1.23;;
17959;SDS011;9105;53.552;9.980;2023-08-01T14:29:05;2.03;;;1.10;;
17959;SDS011;9105;53.552;9.980;2023-08-01T14:32:19;4.40;;;1.40;;
17959;SDS011;9105;53.552;9.980;2023-08-01T14:39:05;1.70;;;1.08;;
17959;SDS011;9105;53.552;9.980;2023-08-01T14:49:22;1.33;;;0.80;;
17959;SDS011;9105;53.552;9.980;2023-08-01T14:52:26;1.52;;;0.95;;
17959;SDS011;9105;53.552;9.980;2023-08-01T15:01:15;1.33;;;0.80;;
17959;SDS011;9105;53.552;9.980;2023-08-01T15:03:45;1.70;;;1.05;;
17959;SDS011;9105;53.552;9.980;2023-08-01T15:06:46;2.42;;;1.38;;
17959;SDS011;9105;53.552;9.980;2023-08-01T15:09:45;2.95;;;1.10;;
17959;SDS011;9105;53.552;9.980;2023-08-01T15:12:22;1.85;;;1.00;;
17959;SDS011;9105;53.552;9.980;2023-08-01T15:15:17;2.85;;;1.10;;
17959;SDS011;9105;53.552;9.980;2023-08-01T15:17:53;1.52;;;0.95;;
17959;SDS011;9105;53.552;9.980;2023-08-01T15:20:22;1.50;;;1.02;;
17959;SDS011;9105;53.552;9.980;2023-08-01T15:22:55;2.13;;;1.20;;
17959;SDS011;9105;53.552;9.980;2023-08-01T15:25:30;2.85;;;1.30;;
17959;SDS011;9105;53.552;9.980;2023-08-01T15:27:57;3.13;;;1.20;;
17959;SDS011;9105;53.552;9.980;2023-08-01T15:30:22;3.45;;;1.38;;
17959;SDS011;9105;53.552;9.980;2023-08-01T15:32:48;3.67;;;1.27;;
17959;SDS011;9105;53.552;9.980;2023-08-01T15:35:13;2.70;;;1.08;;
17959;SDS011;9105;53.552;9.980;2023-08-01T15:37:39;3.63;;;1.50;;
17959;SDS011;9105;53.552;9.980;2023-08-01T15:40:05;3.42;;;1.58;;
17959;SDS011;9105;53.552;9.980;2023-08-01T15:42:31;4.85;;;1.48;;
17959;SDS011;9105;53.552;9.980;2023-08-01T15:44:57;5.80;;;2.15;;
17959;SDS011;9105;53.552;9.980;2023-08-01T15:47:22;5.28;;;2.00;;
17959;SDS011;9105;53.552;9.980;2023-08-01T15:49:47;3.88;;;1.90;;
17959;SDS011;9105;53.552;9.980;2023-08-01T15:52:13;3.20;;;1.52;;
17959;SDS011;9105;53.552;9.980;2023-08-01T15:54:38;3.90;;;1.58;;
17959;SDS011;9105;53.552;9.980;2023-08-01T15:57:04;4.75;;;1.60;;
17959;SDS011;9105;53.552;9.980;2023-08-01T15:59:29;2.80;;;1.50;;
17959;SDS011;9105;53.552;9.980;2023-08-01T16:01:55;3.05;;;1.42;;
17959;SDS011;9105;53.552;9.980;2023-08-01T16:04:20;3.53;;;2.15;;
17959;SDS011;9105;53.552;9.980;2023-08-01T16:06:46;4.43;;;2.38;;
17959;SDS011;9105;53.552;9.980;2023-08-01T16:09:11;2.13;;;1.20;;